sensor_id;sensor_type;location;lat;lon;timestamp;P1;durP1;ratioP1;P2;durP2;ratioP2
12302;SDS011;6214;48.012;7.862;2023-12-07T00:02:03;5.20;;;2.00;;
12302;SDS011;6214;48.012;7.862;2023-12-07T00:04:30;4.80;;;1.70;;
12302;SDS011;6214;48.012;7.862;2023-12-07T00:06:57;4.80;;;1.40;;
12302;SDS011;6214;48.012;7.862;2023-12-07T00:09:24;4.60;;;1.40;;
12302;SDS011;6214;48.012;7.862;2023-12-07T00:11:51;4.80;;;1.63;;
12302;SDS011;6214;48.012;7.862;2023-12-07T00:14:18;5.22;;;1.88;;
12302;SDS011;6214;48.012;7.862;2023-12-07T00:16:45;5.20;;;2.10;;
12302;SDS011;6214;48.012;7.862;2023-12-07T00:19:11;5.03;;;1.90;;
12302;SDS011;6214;48.012;7.862;2023-12-07T00:21:38;5.00;;;2.00;;
12302;SDS011;6214;48.012;7.862;2023-12-07T00:24:05;5.65;;;2.20;;
12302;SDS011;6214;48.012;7.862;2023-12-07T00:26:32;5.60;;;2.30;;
12302;SDS011;6214;48.012;7.862;2023-12-07T00:28:58;5.50;;;2.30;;
12302;SDS011;6214;48.012;7.862;2023-12-07T00:31:25;5.80;;;2.60;;
12302;SDS011;6214;48.012;7.862;2023-12-07T00:33:52;5.38;;;2.20;;
12302;SDS011;6214;48.012;7.862;2023-12-07T00:36:19;5.75;;;2.30;;
12302;SDS011;6214;48.012;7.862;2023-12-07T00:38:46;5.00;;;2.00;;
12302;SDS011;6214;48.012;7.862;2023-12-07T00:41:13;5.10;;;2.20;;
12302;SDS011;6214;48.012;7.862;2023-12-07T00:43:39;6.03;;;2.80;;
12302;SDS011;6214;48.012;7.862;2023-12-07T00:46:07;5.60;;;2.03;;
12302;SDS011;6214;48.012;7.862;2023-12-07T00:48:34;5.30;;;2.00;;
12302;SDS011;6214;48.012;7.862;2023-12-07T00:51:01;5.43;;;1.90;;
12302;SDS011;6214;48.012;7.862;2023-12-07T00:53:28;6.50;;;2.70;;
12302;SDS011;6214;48.012;7.862;2023-12-07T00:55:55;6.10;;;3.00;;
12302;SDS011;6214;48.012;7.862;2023-12-07T00:58:22;5.10;;;2.00;;
12302;SDS011;6214;48.012;7.862;2023-12-07T01:00:49;6.05;;;2.33;;
12302;SDS011;6214;48.012;7.862;2023-12-07T01:03:16;5.60;;;2.80;;
12302;SDS011;6214;48.012;7.862;2023-12-07T01:05:43;5.70;;;2.30;;
12302;SDS011;6214;48.012;7.862;2023-12-07T01:08:09;5.30;;;1.73;;
12302;SDS011;6214;48.012;7.862;2023-12-07T01:10:36;4.90;;;1.60;;
12302;SDS011;6214;48.012;7.862;2023-12-07T01:13:03;4.70;;;1.40;;
12302;SDS011;6214;48.012;7.862;2023-12-07T01:15:30;4.40;;;1.00;;
12302;SDS011;6214;48.012;7.862;2023-12-07T01:17:57;4.70;;;1.70;;
12302;SDS011;6214;48.012;7.862;2023-12-07T01:20:23;5.00;;;1.80;;
12302;SDS011;6214;48.012;7.862;2023-12-07T01:22:50;5.50;;;2.40;;
12302;SDS011;6214;48.012;7.862;2023-12-07T01:25:17;6.13;;;2.60;;
12302;SDS011;6214;48.012;7.862;2023-12-07T01:27:48;5.90;;;2.20;;
12302;SDS011;6214;48.012;7.862;2023-12-07T01:30:15;6.20;;;3.00;;
12302;SDS011;6214;48.012;7.862;2023-12-07T01:32:43;5.40;;;2.30;;
12302;SDS011;6214;48.012;7.862;2023-12-07T01:35:10;5.45;;;2.42;;
12302;SDS011;6214;48.012;7.862;2023-12-07T01:37:37;5.75;;;2.50;;
12302;SDS011;6214;48.012;7.862;2023-12-07T01:40:03;5.57;;;2.22;;
12302;SDS011;6214;48.012;7.862;2023-12-07T01:42:37;5.97;;;3.00;;
12302;SDS011;6214;48.012;7.862;2023-12-07T01:45:05;5.70;;;2.60;;
12302;SDS011;6214;48.012;7.862;2023-12-07T01:47:32;5.65;;;2.60;;
12302;SDS011;6214;48.012;7.862;2023-12-07T01:50:01;5.40;;;2.40;;
12302;SDS011;6214;48.012;7.862;2023-12-07T01:52:31;5.50;;;2.30;;
12302;SDS011;6214;48.012;7.862;2023-12-07T01:55:02;5.05;;;2.08;;
12302;SDS011;6214;48.012;7.862;2023-12-07T01:57:29;5.20;;;2.00;;
12302;SDS011;6214;48.012;7.862;2023-12-07T01:59:56;5.40;;;2.30;;
12302;SDS011;6214;48.012;7.862;2023-12-07T02:02:23;6.25;;;3.00;;
12302;SDS011;6214;48.012;7.862;2023-12-07T02:04:50;5.30;;;2.50;;
12302;SDS011;6214;48.012;7.862;2023-12-07T02:07:17;6.22;;;2.70;;
12302;SDS011;6214;48.012;7.862;2023-12-07T02:09:45;5.50;;;2.50;;
12302;SDS011;6214;48.012;7.862;2023-12-07T02:12:12;5.90;;;2.80;;
12302;SDS011;6214;48.012;7.862;2023-12-07T02:14:39;5.75;;;2.50;;
12302;SDS011;6214;48.012;7.862;2023-12-07T02:17:19;6.35;;;2.70;;
12302;SDS011;6214;48.012;7.862;2023-12-07T02:22:56;5.50;;;1.95;;
12302;SDS011;6214;48.012;7.862;2023-12-07T02:25:36;4.97;;;1.90;;
12302;SDS011;6214;48.012;7.862;2023-12-07T02:28:56;5.40;;;2.20;;
12302;SDS011;6214;48.012;7.862;2023-12-07T02:31:22;5.10;;;1.95;;
12302;SDS011;6214;48.012;7.862;2023-12-07T02:33:49;5.30;;;2.00;;
12302;SDS011;6214;48.012;7.862;2023-12-07T02:36:17;5.40;;;1.60;;
12302;SDS011;6214;48.012;7.862;2023-12-07T02:38:46;5.10;;;1.70;;
12302;SDS011;6214;48.012;7.862;2023-12-07T02:41:15;4.95;;;1.80;;
12302;SDS011;6214;48.012;7.862;2023-12-07T02:43:43;5.20;;;1.70;;
12302;SDS011;6214;48.012;7.862;2023-12-07T02:46:11;4.80;;;1.70;;
12302;SDS011;6214;48.012;7.862;2023-12-07T02:48:37;5.30;;;2.00;;
12302;SDS011;6214;48.012;7.862;2023-12-07T02:51:04;5.20;;;2.00;;
12302;SDS011;6214;48.012;7.862;2023-12-07T02:53:31;5.30;;;1.90;;
12302;SDS011;6214;48.012;7.862;2023-12-07T02:55:58;5.20;;;1.80;;
12302;SDS011;6214;48.012;7.862;2023-12-07T02:58:25;5.20;;;2.15;;
12302;SDS011;6214;48.012;7.862;2023-12-07T03:00:52;5.07;;;1.98;;
12302;SDS011;6214;48.012;7.862;2023-12-07T03:03:19;5.60;;;2.20;;
12302;SDS011;6214;48.012;7.862;2023-12-07T03:05:45;5.47;;;2.10;;
12302;SDS011;6214;48.012;7.862;2023-12-07T03:08:12;4.90;;;1.80;;
12302;SDS011;6214;48.012;7.862;2023-12-07T03:10:39;4.80;;;1.70;;
12302;SDS011;6214;48.012;7.862;2023-12-07T03:13:06;5.00;;;1.70;;
12302;SDS011;6214;48.012;7.862;2023-12-07T03:15:33;4.90;;;1.60;;
12302;SDS011;6214;48.012;7.862;2023-12-07T03:18:00;5.30;;;1.90;;
12302;SDS011;6214;48.012;7.862;2023-12-07T03:20:26;4.80;;;1.40;;
12302;SDS011;6214;48.012;7.862;2023-12-07T03:22:53;4.70;;;1.40;;
12302;SDS011;6214;48.012;7.862;2023-12-07T03:25:20;5.22;;;1.98;;
12302;SDS011;6214;48.012;7.862;2023-12-07T03:27:47;5.20;;;2.00;;
12302;SDS011;6214;48.012;7.862;2023-12-07T03:30:14;5.68;;;2.10;;
12302;SDS011;6214;48.012;7.862;2023-12-07T03:32:41;5.82;;;2.47;;
12302;SDS011;6214;48.012;7.862;2023-12-07T03:35:07;5.40;;;2.10;;
12302;SDS011;6214;48.012;7.862;2023-12-07T03:37:34;5.22;;;1.70;;
12302;SDS011;6214;48.012;7.862;2023-12-07T03:40:01;5.00;;;1.80;;
12302;SDS011;6214;48.012;7.862;2023-12-07T03:42:30;5.20;;;1.90;;
12302;SDS011;6214;48.012;7.862;2023-12-07T03:45:16;5.30;;;2.00;;
12302;SDS011;6214;48.012;7.862;2023-12-07T03:47:43;5.40;;;1.88;;
12302;SDS011;6214;48.012;7.862;2023-12-07T03:50:10;5.55;;;1.85;;
12302;SDS011;6214;48.012;7.862;2023-12-07T03:52:37;4.70;;;1.48;;
12302;SDS011;6214;48.012;7.862;2023-12-07T03:55:04;5.00;;;1.40;;
12302;SDS011;6214;48.012;7.862;2023-12-07T03:57:31;5.20;;;2.10;;
12302;SDS011;6214;48.012;7.862;2023-12-07T03:59:58;5.30;;;1.90;;
12302;SDS011;6214;48.012;7.862;2023-12-07T04:02:25;5.22;;;2.00;;
12302;SDS011;6214;48.012;7.862;2023-12-07T04:04:52;6.00;;;2.70;;
12302;SDS011;6214;48.012;7.862;2023-12-07T04:07:18;5.97;;;2.92;;
12302;SDS011;6214;48.012;7.862;2023-12-07T04:09:45;6.40;;;2.97;;
12302;SDS011;6214;48.012;7.862;2023-12-07T04:12:12;6.37;;;2.73;;
12302;SDS011;6214;48.012;7.862;2023-12-07T04:14:39;5.57;;;2.50;;
12302;SDS011;6214;48.012;7.862;2023-12-07T04:17:06;5.30;;;2.25;;
12302;SDS011;6214;48.012;7.862;2023-12-07T04:19:32;5.00;;;1.83;;
12302;SDS011;6214;48.012;7.862;2023-12-07T04:21:59;5.60;;;2.00;;
12302;SDS011;6214;48.012;7.862;2023-12-07T04:24:26;5.75;;;2.50;;
12302;SDS011;6214;48.012;7.862;2023-12-07T04:26:52;5.57;;;2.10;;
12302;SDS011;6214;48.012;7.862;2023-12-07T04:29:19;5.40;;;2.20;;
12302;SDS011;6214;48.012;7.862;2023-12-07T04:31:46;4.97;;;1.70;;
12302;SDS011;6214;48.012;7.862;2023-12-07T04:34:13;4.55;;;1.30;;
12302;SDS011;6214;48.012;7.862;2023-12-07T04:36:39;4.80;;;1.40;;
12302;SDS011;6214;48.012;7.862;2023-12-07T04:39:06;5.70;;;1.90;;
12302;SDS011;6214;48.012;7.862;2023-12-07T04:41:34;4.85;;;1.50;;
12302;SDS011;6214;48.012;7.862;2023-12-07T04:44:01;5.20;;;2.13;;
12302;SDS011;6214;48.012;7.862;2023-12-07T04:46:28;5.68;;;2.30;;
12302;SDS011;6214;48.012;7.862;2023-12-07T04:48:55;6.00;;;2.65;;
12302;SDS011;6214;48.012;7.862;2023-12-07T04:51:22;5.40;;;1.80;;
12302;SDS011;6214;48.012;7.862;2023-12-07T04:53:48;5.47;;;2.03;;
12302;SDS011;6214;48.012;7.862;2023-12-07T04:56:15;5.30;;;2.00;;
12302;SDS011;6214;48.012;7.862;2023-12-07T04:58:42;4.90;;;1.70;;
12302;SDS011;6214;48.012;7.862;2023-12-07T05:01:08;6.00;;;2.20;;
12302;SDS011;6214;48.012;7.862;2023-12-07T05:03:35;5.40;;;2.10;;
12302;SDS011;6214;48.012;7.862;2023-12-07T05:06:02;5.40;;;2.20;;
12302;SDS011;6214;48.012;7.862;2023-12-07T05:08:29;5.30;;;2.10;;
12302;SDS011;6214;48.012;7.862;2023-12-07T05:10:56;5.40;;;2.00;;
12302;SDS011;6214;48.012;7.862;2023-12-07T05:13:23;5.20;;;1.90;;
12302;SDS011;6214;48.012;7.862;2023-12-07T05:15:50;4.70;;;1.50;;
12302;SDS011;6214;48.012;7.862;2023-12-07T05:18:17;5.00;;;1.60;;
12302;SDS011;6214;48.012;7.862;2023-12-07T05:20:43;4.70;;;1.40;;
12302;SDS011;6214;48.012;7.862;2023-12-07T05:23:10;4.93;;;1.60;;
12302;SDS011;6214;48.012;7.862;2023-12-07T05:25:37;5.10;;;1.70;;
12302;SDS011;6214;48.012;7.862;2023-12-07T05:28:04;4.53;;;1.30;;
12302;SDS011;6214;48.012;7.862;2023-12-07T05:30:31;4.60;;;1.20;;
12302;SDS011;6214;48.012;7.862;2023-12-07T05:32:57;4.80;;;1.40;;
12302;SDS011;6214;48.012;7.862;2023-12-07T05:35:24;5.30;;;1.80;;
12302;SDS011;6214;48.012;7.862;2023-12-07T05:37:51;5.10;;;1.40;;
12302;SDS011;6214;48.012;7.862;2023-12-07T05:40:17;4.40;;;1.10;;
12302;SDS011;6214;48.012;7.862;2023-12-07T05:42:47;4.70;;;0.90;;
12302;SDS011;6214;48.012;7.862;2023-12-07T05:45:16;4.90;;;1.40;;
12302;SDS011;6214;48.012;7.862;2023-12-07T05:47:42;4.65;;;1.20;;
12302;SDS011;6214;48.012;7.862;2023-12-07T05:50:09;5.20;;;1.90;;
12302;SDS011;6214;48.012;7.862;2023-12-07T05:52:36;4.97;;;1.65;;
12302;SDS011;6214;48.012;7.862;2023-12-07T05:55:03;4.80;;;1.60;;
12302;SDS011;6214;48.012;7.862;2023-12-07T05:57:31;4.80;;;1.60;;
12302;SDS011;6214;48.012;7.862;2023-12-07T05:59:58;4.60;;;1.45;;
12302;SDS011;6214;48.012;7.862;2023-12-07T06:02:25;5.10;;;1.83;;
12302;SDS011;6214;48.012;7.862;2023-12-07T06:04:53;5.22;;;2.10;;
12302;SDS011;6214;48.012;7.862;2023-12-07T06:07:20;5.72;;;2.60;;
12302;SDS011;6214;48.012;7.862;2023-12-07T06:09:46;5.25;;;2.00;;
12302;SDS011;6214;48.012;7.862;2023-12-07T06:12:13;5.68;;;2.17;;
12302;SDS011;6214;48.012;7.862;2023-12-07T06:14:40;5.20;;;2.20;;
12302;SDS011;6214;48.012;7.862;2023-12-07T06:17:07;6.05;;;2.50;;
12302;SDS011;6214;48.012;7.862;2023-12-07T06:19:34;5.00;;;1.80;;
12302;SDS011;6214;48.012;7.862;2023-12-07T06:22:01;5.10;;;1.90;;
12302;SDS011;6214;48.012;7.862;2023-12-07T06:24:27;5.10;;;1.90;;
12302;SDS011;6214;48.012;7.862;2023-12-07T06:26:54;5.80;;;2.30;;
12302;SDS011;6214;48.012;7.862;2023-12-07T06:29:21;4.75;;;1.60;;
12302;SDS011;6214;48.012;7.862;2023-12-07T06:31:48;5.00;;;1.80;;
12302;SDS011;6214;48.012;7.862;2023-12-07T06:34:15;4.72;;;1.50;;
12302;SDS011;6214;48.012;7.862;2023-12-07T06:36:43;4.80;;;1.60;;
12302;SDS011;6214;48.012;7.862;2023-12-07T06:39:10;5.00;;;1.90;;
12302;SDS011;6214;48.012;7.862;2023-12-07T06:41:36;4.70;;;1.50;;
12302;SDS011;6214;48.012;7.862;2023-12-07T06:44:03;5.40;;;1.95;;
12302;SDS011;6214;48.012;7.862;2023-12-07T06:46:30;4.88;;;1.73;;
12302;SDS011;6214;48.012;7.862;2023-12-07T06:48:57;5.00;;;1.60;;
12302;SDS011;6214;48.012;7.862;2023-12-07T06:51:24;5.43;;;2.00;;
12302;SDS011;6214;48.012;7.862;2023-12-07T06:53:51;5.00;;;1.80;;
12302;SDS011;6214;48.012;7.862;2023-12-07T06:56:18;4.80;;;1.50;;
12302;SDS011;6214;48.012;7.862;2023-12-07T06:58:44;5.40;;;2.33;;
12302;SDS011;6214;48.012;7.862;2023-12-07T07:01:11;5.20;;;1.93;;
12302;SDS011;6214;48.012;7.862;2023-12-07T07:03:39;5.85;;;2.30;;
12302;SDS011;6214;48.012;7.862;2023-12-07T07:06:06;5.97;;;2.60;;
12302;SDS011;6214;48.012;7.862;2023-12-07T07:08:33;5.18;;;2.00;;
12302;SDS011;6214;48.012;7.862;2023-12-07T07:11:00;6.47;;;2.70;;
12302;SDS011;6214;48.012;7.862;2023-12-07T07:13:26;5.90;;;2.45;;
12302;SDS011;6214;48.012;7.862;2023-12-07T07:15:53;6.20;;;2.55;;
12302;SDS011;6214;48.012;7.862;2023-12-07T07:18:21;5.30;;;1.92;;
12302;SDS011;6214;48.012;7.862;2023-12-07T07:20:50;5.70;;;1.73;;
12302;SDS011;6214;48.012;7.862;2023-12-07T07:23:17;5.20;;;1.50;;
12302;SDS011;6214;48.012;7.862;2023-12-07T07:25:44;4.70;;;1.35;;
12302;SDS011;6214;48.012;7.862;2023-12-07T07:28:11;5.50;;;1.83;;
12302;SDS011;6214;48.012;7.862;2023-12-07T07:30:38;5.50;;;2.10;;
12302;SDS011;6214;48.012;7.862;2023-12-07T07:33:04;5.22;;;2.10;;
12302;SDS011;6214;48.012;7.862;2023-12-07T07:35:31;4.80;;;1.60;;
12302;SDS011;6214;48.012;7.862;2023-12-07T07:37:58;4.70;;;1.45;;
12302;SDS011;6214;48.012;7.862;2023-12-07T07:40:25;4.60;;;1.40;;
12302;SDS011;6214;48.012;7.862;2023-12-07T07:42:52;4.70;;;1.40;;
12302;SDS011;6214;48.012;7.862;2023-12-07T07:45:19;5.07;;;1.80;;
12302;SDS011;6214;48.012;7.862;2023-12-07T07:47:46;5.10;;;1.75;;
12302;SDS011;6214;48.012;7.862;2023-12-07T07:50:13;4.72;;;1.50;;
12302;SDS011;6214;48.012;7.862;2023-12-07T07:52:42;5.07;;;1.33;;
12302;SDS011;6214;48.012;7.862;2023-12-07T07:55:09;5.10;;;1.80;;
12302;SDS011;6214;48.012;7.862;2023-12-07T07:57:37;5.97;;;2.63;;
12302;SDS011;6214;48.012;7.862;2023-12-07T08:00:04;7.10;;;3.30;;
12302;SDS011;6214;48.012;7.862;2023-12-07T08:02:34;6.32;;;3.22;;
12302;SDS011;6214;48.012;7.862;2023-12-07T08:05:02;6.20;;;3.20;;
12302;SDS011;6214;48.012;7.862;2023-12-07T08:07:29;6.10;;;2.90;;
12302;SDS011;6214;48.012;7.862;2023-12-07T08:09:56;6.40;;;3.30;;
12302;SDS011;6214;48.012;7.862;2023-12-07T08:12:23;6.40;;;3.10;;
12302;SDS011;6214;48.012;7.862;2023-12-07T08:14:50;6.72;;;2.80;;
12302;SDS011;6214;48.012;7.862;2023-12-07T08:17:17;5.30;;;2.10;;
12302;SDS011;6214;48.012;7.862;2023-12-07T08:19:45;5.00;;;1.60;;
12302;SDS011;6214;48.012;7.862;2023-12-07T08:22:12;5.00;;;1.77;;
12302;SDS011;6214;48.012;7.862;2023-12-07T08:24:40;5.00;;;1.80;;
12302;SDS011;6214;48.012;7.862;2023-12-07T08:27:06;4.40;;;1.17;;
12302;SDS011;6214;48.012;7.862;2023-12-07T08:29:34;5.30;;;2.10;;
12302;SDS011;6214;48.012;7.862;2023-12-07T08:32:01;5.22;;;1.90;;
12302;SDS011;6214;48.012;7.862;2023-12-07T08:34:28;5.90;;;2.58;;
12302;SDS011;6214;48.012;7.862;2023-12-07T08:36:55;5.40;;;2.00;;
12302;SDS011;6214;48.012;7.862;2023-12-07T08:39:23;5.30;;;2.10;;
12302;SDS011;6214;48.012;7.862;2023-12-07T08:41:52;5.87;;;2.33;;
12302;SDS011;6214;48.012;7.862;2023-12-07T08:44:18;6.00;;;2.80;;
12302;SDS011;6214;48.012;7.862;2023-12-07T08:46:45;7.78;;;4.60;;
12302;SDS011;6214;48.012;7.862;2023-12-07T08:49:12;8.05;;;4.80;;
12302;SDS011;6214;48.012;7.862;2023-12-07T08:51:40;7.22;;;4.15;;
12302;SDS011;6214;48.012;7.862;2023-12-07T08:54:27;7.07;;;4.00;;
12302;SDS011;6214;48.012;7.862;2023-12-07T08:56:54;6.00;;;3.00;;
12302;SDS011;6214;48.012;7.862;2023-12-07T08:59:21;7.50;;;4.50;;
12302;SDS011;6214;48.012;7.862;2023-12-07T09:01:49;6.95;;;4.35;;
12302;SDS011;6214;48.012;7.862;2023-12-07T09:04:16;5.90;;;3.17;;
12302;SDS011;6214;48.012;7.862;2023-12-07T09:06:44;5.72;;;2.90;;
12302;SDS011;6214;48.012;7.862;2023-12-07T09:09:10;6.03;;;3.13;;
12302;SDS011;6214;48.012;7.862;2023-12-07T09:11:38;7.20;;;3.88;;
12302;SDS011;6214;48.012;7.862;2023-12-07T09:14:04;6.55;;;3.50;;
12302;SDS011;6214;48.012;7.862;2023-12-07T09:16:31;6.33;;;3.10;;
12302;SDS011;6214;48.012;7.862;2023-12-07T09:18:58;5.57;;;2.80;;
12302;SDS011;6214;48.012;7.862;2023-12-07T09:21:25;5.20;;;2.20;;
12302;SDS011;6214;48.012;7.862;2023-12-07T09:23:52;7.10;;;3.40;;
12302;SDS011;6214;48.012;7.862;2023-12-07T09:26:18;6.00;;;3.13;;
12302;SDS011;6214;48.012;7.862;2023-12-07T09:28:46;6.00;;;2.85;;
12302;SDS011;6214;48.012;7.862;2023-12-07T09:31:13;6.35;;;3.50;;
12302;SDS011;6214;48.012;7.862;2023-12-07T09:33:40;8.00;;;4.55;;
12302;SDS011;6214;48.012;7.862;2023-12-07T09:36:07;6.78;;;3.50;;
12302;SDS011;6214;48.012;7.862;2023-12-07T09:38:35;5.80;;;3.08;;
12302;SDS011;6214;48.012;7.862;2023-12-07T09:41:03;6.82;;;4.13;;
12302;SDS011;6214;48.012;7.862;2023-12-07T09:43:30;6.90;;;4.50;;
12302;SDS011;6214;48.012;7.862;2023-12-07T09:45:57;7.10;;;4.10;;
12302;SDS011;6214;48.012;7.862;2023-12-07T09:48:24;5.90;;;3.10;;
12302;SDS011;6214;48.012;7.862;2023-12-07T09:50:52;7.53;;;4.10;;
12302;SDS011;6214;48.012;7.862;2023-12-07T09:53:21;6.60;;;3.20;;
12302;SDS011;6214;48.012;7.862;2023-12-07T09:55:48;5.60;;;2.50;;
12302;SDS011;6214;48.012;7.862;2023-12-07T09:58:15;7.50;;;3.87;;
12302;SDS011;6214;48.012;7.862;2023-12-07T10:00:53;7.60;;;4.32;;
12302;SDS011;6214;48.012;7.862;2023-12-07T10:03:22;6.63;;;4.20;;
12302;SDS011;6214;48.012;7.862;2023-12-07T10:05:53;5.90;;;3.20;;
12302;SDS011;6214;48.012;7.862;2023-12-07T10:08:25;8.88;;;5.20;;
12302;SDS011;6214;48.012;7.862;2023-12-07T10:11:02;7.60;;;5.30;;
12302;SDS011;6214;48.012;7.862;2023-12-07T10:13:34;7.40;;;4.53;;
12302;SDS011;6214;48.012;7.862;2023-12-07T10:16:15;6.20;;;3.70;;
12302;SDS011;6214;48.012;7.862;2023-12-07T10:18:43;6.50;;;3.30;;
12302;SDS011;6214;48.012;7.862;2023-12-07T10:21:11;7.75;;;4.95;;
12302;SDS011;6214;48.012;7.862;2023-12-07T10:23:40;6.30;;;3.40;;
12302;SDS011;6214;48.012;7.862;2023-12-07T10:26:10;6.10;;;3.20;;
12302;SDS011;6214;48.012;7.862;2023-12-07T10:28:37;5.80;;;2.80;;
12302;SDS011;6214;48.012;7.862;2023-12-07T10:31:09;8.20;;;4.80;;
12302;SDS011;6214;48.012;7.862;2023-12-07T10:33:36;7.93;;;5.00;;
12302;SDS011;6214;48.012;7.862;2023-12-07T10:36:03;9.73;;;6.20;;
12302;SDS011;6214;48.012;7.862;2023-12-07T10:38:31;7.97;;;5.00;;
12302;SDS011;6214;48.012;7.862;2023-12-07T10:41:03;6.80;;;3.60;;
12302;SDS011;6214;48.012;7.862;2023-12-07T10:43:33;9.55;;;7.28;;
12302;SDS011;6214;48.012;7.862;2023-12-07T10:46:04;8.40;;;5.60;;
12302;SDS011;6214;48.012;7.862;2023-12-07T10:48:32;8.90;;;6.05;;
12302;SDS011;6214;48.012;7.862;2023-12-07T10:51:01;8.65;;;5.90;;
12302;SDS011;6214;48.012;7.862;2023-12-07T10:53:37;11.10;;;7.60;;
12302;SDS011;6214;48.012;7.862;2023-12-07T10:56:14;9.27;;;7.03;;
12302;SDS011;6214;48.012;7.862;2023-12-07T10:58:47;10.40;;;7.07;;
12302;SDS011;6214;48.012;7.862;2023-12-07T11:01:15;9.97;;;7.30;;
12302;SDS011;6214;48.012;7.862;2023-12-07T11:03:44;7.70;;;4.43;;
12302;SDS011;6214;48.012;7.862;2023-12-07T11:06:13;6.70;;;3.60;;
12302;SDS011;6214;48.012;7.862;2023-12-07T11:08:44;5.78;;;2.72;;
12302;SDS011;6214;48.012;7.862;2023-12-07T11:14:14;9.55;;;6.47;;
12302;SDS011;6214;48.012;7.862;2023-12-07T11:16:43;9.02;;;6.70;;
12302;SDS011;6214;48.012;7.862;2023-12-07T11:22:05;10.80;;;7.30;;
12302;SDS011;6214;48.012;7.862;2023-12-07T11:24:33;8.52;;;6.20;;
12302;SDS011;6214;48.012;7.862;2023-12-07T11:26:59;9.75;;;7.10;;
12302;SDS011;6214;48.012;7.862;2023-12-07T11:29:31;8.98;;;6.18;;
12302;SDS011;6214;48.012;7.862;2023-12-07T11:32:01;9.18;;;6.80;;
12302;SDS011;6214;48.012;7.862;2023-12-07T11:34:39;9.57;;;6.70;;
12302;SDS011;6214;48.012;7.862;2023-12-07T11:37:07;10.50;;;7.30;;
12302;SDS011;6214;48.012;7.862;2023-12-07T11:39:41;9.30;;;6.90;;
12302;SDS011;6214;48.012;7.862;2023-12-07T11:42:12;8.40;;;5.40;;
12302;SDS011;6214;48.012;7.862;2023-12-07T11:44:43;9.30;;;6.90;;
12302;SDS011;6214;48.012;7.862;2023-12-07T11:47:16;8.90;;;6.18;;
12302;SDS011;6214;48.012;7.862;2023-12-07T11:49:45;8.73;;;5.82;;
12302;SDS011;6214;48.012;7.862;2023-12-07T11:52:16;9.97;;;7.40;;
12302;SDS011;6214;48.012;7.862;2023-12-07T11:54:45;9.95;;;6.78;;
12302;SDS011;6214;48.012;7.862;2023-12-07T11:57:16;8.95;;;6.80;;
12302;SDS011;6214;48.012;7.862;2023-12-07T11:59:45;9.20;;;6.33;;
12302;SDS011;6214;48.012;7.862;2023-12-07T12:02:13;7.55;;;4.80;;
12302;SDS011;6214;48.012;7.862;2023-12-07T12:04:41;7.33;;;4.10;;
12302;SDS011;6214;48.012;7.862;2023-12-07T12:07:08;8.27;;;5.65;;
12302;SDS011;6214;48.012;7.862;2023-12-07T12:09:35;8.07;;;5.18;;
12302;SDS011;6214;48.012;7.862;2023-12-07T12:12:01;8.38;;;5.70;;
12302;SDS011;6214;48.012;7.862;2023-12-07T12:14:29;8.18;;;5.50;;
12302;SDS011;6214;48.012;7.862;2023-12-07T12:16:56;8.43;;;5.43;;
12302;SDS011;6214;48.012;7.862;2023-12-07T12:19:24;9.05;;;5.65;;
12302;SDS011;6214;48.012;7.862;2023-12-07T12:22:01;9.60;;;6.80;;
12302;SDS011;6214;48.012;7.862;2023-12-07T12:24:32;9.32;;;6.75;;
12302;SDS011;6214;48.012;7.862;2023-12-07T12:27:04;8.30;;;5.60;;
12302;SDS011;6214;48.012;7.862;2023-12-07T12:29:31;8.07;;;5.40;;
12302;SDS011;6214;48.012;7.862;2023-12-07T12:32:01;9.38;;;6.68;;
12302;SDS011;6214;48.012;7.862;2023-12-07T12:34:30;9.90;;;7.20;;
12302;SDS011;6214;48.012;7.862;2023-12-07T12:36:58;10.20;;;7.60;;
12302;SDS011;6214;48.012;7.862;2023-12-07T12:39:29;11.30;;;9.40;;
12302;SDS011;6214;48.012;7.862;2023-12-07T12:42:00;11.83;;;9.20;;
12302;SDS011;6214;48.012;7.862;2023-12-07T12:44:28;10.32;;;8.32;;
12302;SDS011;6214;48.012;7.862;2023-12-07T12:47:04;11.40;;;8.60;;
12302;SDS011;6214;48.012;7.862;2023-12-07T12:49:35;10.20;;;7.60;;
12302;SDS011;6214;48.012;7.862;2023-12-07T12:52:03;10.00;;;6.43;;
12302;SDS011;6214;48.012;7.862;2023-12-07T12:54:31;9.15;;;6.80;;
12302;SDS011;6214;48.012;7.862;2023-12-07T12:57:02;9.10;;;7.20;;
12302;SDS011;6214;48.012;7.862;2023-12-07T12:59:33;11.80;;;9.65;;
12302;SDS011;6214;48.012;7.862;2023-12-07T13:02:01;11.95;;;10.07;;
12302;SDS011;6214;48.012;7.862;2023-12-07T13:04:30;10.13;;;7.95;;
12302;SDS011;6214;48.012;7.862;2023-12-07T13:07:07;9.90;;;7.70;;
12302;SDS011;6214;48.012;7.862;2023-12-07T13:09:34;9.57;;;6.53;;
12302;SDS011;6214;48.012;7.862;2023-12-07T13:12:01;8.90;;;5.93;;
12302;SDS011;6214;48.012;7.862;2023-12-07T13:14:31;11.95;;;8.20;;
12302;SDS011;6214;48.012;7.862;2023-12-07T13:17:02;11.73;;;8.18;;
12302;SDS011;6214;48.012;7.862;2023-12-07T13:19:30;11.57;;;9.20;;
12302;SDS011;6214;48.012;7.862;2023-12-07T13:21:58;10.10;;;7.90;;
12302;SDS011;6214;48.012;7.862;2023-12-07T13:24:25;8.10;;;5.40;;
12302;SDS011;6214;48.012;7.862;2023-12-07T13:26:52;9.90;;;7.00;;
12302;SDS011;6214;48.012;7.862;2023-12-07T13:29:19;9.05;;;6.05;;
12302;SDS011;6214;48.012;7.862;2023-12-07T13:32:00;12.07;;;9.27;;
12302;SDS011;6214;48.012;7.862;2023-12-07T13:34:27;9.90;;;7.80;;
12302;SDS011;6214;48.012;7.862;2023-12-07T13:36:54;12.10;;;9.30;;
12302;SDS011;6214;48.012;7.862;2023-12-07T13:39:21;12.13;;;9.10;;
12302;SDS011;6214;48.012;7.862;2023-12-07T13:41:57;10.07;;;6.90;;
12302;SDS011;6214;48.012;7.862;2023-12-07T13:44:27;7.80;;;4.80;;
12302;SDS011;6214;48.012;7.862;2023-12-07T13:46:55;7.20;;;4.18;;
12302;SDS011;6214;48.012;7.862;2023-12-07T13:49:23;8.70;;;5.97;;
12302;SDS011;6214;48.012;7.862;2023-12-07T13:51:59;7.65;;;4.43;;
12302;SDS011;6214;48.012;7.862;2023-12-07T13:54:33;9.55;;;7.30;;
12302;SDS011;6214;48.012;7.862;2023-12-07T13:57:19;13.50;;;10.90;;
12302;SDS011;6214;48.012;7.862;2023-12-07T13:59:47;14.13;;;11.48;;
12302;SDS011;6214;48.012;7.862;2023-12-07T14:02:13;10.30;;;8.05;;
12302;SDS011;6214;48.012;7.862;2023-12-07T14:04:41;12.80;;;10.00;;
12302;SDS011;6214;48.012;7.862;2023-12-07T14:07:09;13.10;;;10.90;;
12302;SDS011;6214;48.012;7.862;2023-12-07T14:09:39;13.85;;;9.93;;
12302;SDS011;6214;48.012;7.862;2023-12-07T14:12:22;10.90;;;8.20;;
12302;SDS011;6214;48.012;7.862;2023-12-07T14:14:49;10.77;;;7.50;;
12302;SDS011;6214;48.012;7.862;2023-12-07T14:17:16;10.38;;;7.18;;
12302;SDS011;6214;48.012;7.862;2023-12-07T14:19:45;11.55;;;8.98;;
12302;SDS011;6214;48.012;7.862;2023-12-07T14:22:15;12.00;;;9.10;;
12302;SDS011;6214;48.012;7.862;2023-12-07T14:24:42;10.43;;;7.90;;
12302;SDS011;6214;48.012;7.862;2023-12-07T14:27:08;7.93;;;5.40;;
12302;SDS011;6214;48.012;7.862;2023-12-07T14:29:35;7.65;;;4.50;;
12302;SDS011;6214;48.012;7.862;2023-12-07T14:32:02;8.80;;;5.57;;
12302;SDS011;6214;48.012;7.862;2023-12-07T14:34:30;11.45;;;8.50;;
12302;SDS011;6214;48.012;7.862;2023-12-07T14:37:02;11.10;;;8.65;;
12302;SDS011;6214;48.012;7.862;2023-12-07T14:39:36;10.40;;;7.73;;
12302;SDS011;6214;48.012;7.862;2023-12-07T14:42:05;8.50;;;5.60;;
12302;SDS011;6214;48.012;7.862;2023-12-07T14:44:33;12.05;;;9.20;;
12302;SDS011;6214;48.012;7.862;2023-12-07T14:47:00;10.98;;;8.30;;
12302;SDS011;6214;48.012;7.862;2023-12-07T14:49:27;11.98;;;9.10;;
12302;SDS011;6214;48.012;7.862;2023-12-07T14:51:54;10.70;;;7.70;;
12302;SDS011;6214;48.012;7.862;2023-12-07T14:54:27;12.15;;;8.60;;
12302;SDS011;6214;48.012;7.862;2023-12-07T14:56:56;11.57;;;8.48;;
12302;SDS011;6214;48.012;7.862;2023-12-07T14:59:23;13.23;;;9.73;;
12302;SDS011;6214;48.012;7.862;2023-12-07T15:01:51;11.65;;;9.27;;
12302;SDS011;6214;48.012;7.862;2023-12-07T15:04:19;12.60;;;10.13;;
12302;SDS011;6214;48.012;7.862;2023-12-07T15:06:59;13.30;;;10.80;;
12302;SDS011;6214;48.012;7.862;2023-12-07T15:09:27;11.05;;;8.27;;
12302;SDS011;6214;48.012;7.862;2023-12-07T15:11:55;11.50;;;8.47;;
12302;SDS011;6214;48.012;7.862;2023-12-07T15:14:23;10.18;;;7.50;;
12302;SDS011;6214;48.012;7.862;2023-12-07T15:17:03;8.35;;;5.50;;